Time;durP1;ratioP1;P1;durP2;ratioP2;P2;SDS_P1;SDS_P2;PMS_P1;PMS_P2;Temp;Humidity;BMP_temperature;BMP_pressure;BME280_temperature;BME280_humidity;BME280_pressure;Samples;Min_cycle;Max_cycle;Signal;HPM_P1;HPM_P2
2023/01/29 00:01:55;;;;;;;44.42;21.00;;;;;;;-0.26;74.31;102822.53;3603565;39;20067;-62
2023/01/29 00:04:21;;;;;;;49.72;23.27;;;;;;;-0.28;74.50;102829.56;3604692;39;20457;-63
2023/01/29 00:06:47;;;;;;;39.67;20.52;;;;;;;-0.30;74.73;102818.94;3603156;39;20487;-63
2023/01/29 00:09:13;;;;;;;49.13;22.67;;;;;;;-0.16;74.23;102827.09;3603109;39;20055;-62
2023/01/29 00:11:40;;;;;;;44.42;21.27;;;;;;;-0.21;74.64;102798.81;3603359;39;20075;-63
2023/01/29 00:14:06;;;;;;;40.22;21.15;;;;;;;-0.10;74.19;102813.06;3606593;39;20136;-62
2023/01/29 00:16:32;;;;;;;42.40;22.17;;;;;;;-0.04;74.68;102813.16;3605723;39;20106;-62
2023/01/29 00:18:58;;;;;;;34.78;19.25;;;;;;;0.01;75.17;102816.75;3606941;39;20058;-62
2023/01/29 00:21:23;;;;;;;35.38;20.52;;;;;;;0.00;74.70;102799.13;3607049;39;20065;-62
2023/01/29 00:23:50;;;;;;;36.63;20.52;;;;;;;0.06;74.11;102809.75;3603752;39;20062;-62
2023/01/29 00:26:16;;;;;;;39.08;22.42;;;;;;;0.10;75.50;102805.44;3605067;39;20135;-62
2023/01/29 00:28:42;;;;;;;39.78;21.38;;;;;;;0.12;74.71;102801.91;3606910;39;20608;-62
2023/01/29 00:31:15;;;;;;;38.72;19.83;;;;;;;-0.04;74.48;102768.22;3604609;39;20060;-62
2023/01/29 00:33:41;;;;;;;33.42;19.35;;;;;;;0.18;75.12;102791.41;3606021;39;20178;-62
2023/01/29 00:36:11;;;;;;;30.90;18.67;;;;;;;0.17;74.86;102797.59;3604236;39;20360;-62
2023/01/29 00:38:38;;;;;;;31.38;17.75;;;;;;;-0.07;74.13;102742.63;3606538;39;20067;-62
2023/01/29 00:46:45;;;;;;;27.42;16.27;;;;;;;0.28;73.66;102783.59;3605845;39;20143;-62
2023/01/29 00:49:11;;;;;;;27.92;16.50;;;;;;;0.30;73.32;102779.22;3605518;39;20059;-63
2023/01/29 00:51:38;;;;;;;28.83;16.70;;;;;;;0.33;73.83;102772.22;3605469;39;20058;-62
2023/01/29 00:54:05;;;;;;;29.70;16.42;;;;;;;0.35;72.98;102767.84;3609352;39;20054;-62
2023/01/29 00:56:35;;;;;;;27.25;15.70;;;;;;;0.32;73.86;102765.16;3608541;39;20124;-62
2023/01/29 00:59:02;;;;;;;27.42;16.42;;;;;;;0.34;73.85;102762.53;3607877;39;20065;-62
2023/01/29 01:04:12;;;;;;;23.77;14.68;;;;;;;0.33;73.31;102755.47;3605092;39;20054;-62
2023/01/29 01:06:42;;;;;;;25.48;15.35;;;;;;;0.28;73.94;102751.88;3604775;39;20051;-62
2023/01/29 01:11:54;;;;;;;26.60;16.52;;;;;;;0.25;73.64;102752.72;3604677;39;20057;-62
2023/01/29 01:14:20;;;;;;;26.63;16.30;;;;;;;-0.02;72.93;102708.34;3606234;39;20135;-62
2023/01/29 01:16:47;;;;;;;25.52;15.70;;;;;;;-0.13;72.66;102691.44;3603466;39;20124;-62
2023/01/29 01:19:14;;;;;;;28.20;16.38;;;;;;;0.18;72.85;102751.75;3606728;39;20051;-62
2023/01/29 01:21:44;;;;;;;28.23;16.70;;;;;;;0.24;73.09;102764.16;3612125;39;20129;-62
2023/01/29 01:24:11;;;;;;;26.88;16.00;;;;;;;0.20;72.51;102768.53;3605343;39;20374;-62
2023/01/29 01:26:37;;;;;;;28.10;16.42;;;;;;;0.10;73.11;102745.50;3606010;39;20294;-62
2023/01/29 01:29:03;;;;;;;27.67;16.95;;;;;;;-0.51;73.47;102631.97;3607761;39;20058;-62
2023/01/29 01:31:29;;;;;;;27.02;16.02;;;;;;;0.25;73.05;102763.28;3603860;39;20054;-62
2023/01/29 01:33:55;;;;;;;28.48;16.45;;;;;;;0.28;72.85;102768.63;3602844;39;20083;-62
2023/01/29 01:36:20;;;;;;;27.30;16.42;;;;;;;0.28;73.53;102762.44;3603449;39;20058;-62
2023/01/29 01:38:46;;;;;;;28.60;17.33;;;;;;;0.34;72.76;102771.34;3603705;39;20060;-62
2023/01/29 01:41:19;;;;;;;25.90;15.98;;;;;;;0.11;73.47;102727.88;3606089;39;20067;-63
2023/01/29 01:43:59;;;;;;;29.27;17.00;;;;;;;0.35;73.14;102766.94;3606153;39;20123;-61
2023/01/29 01:46:34;;;;;;;27.65;16.10;;;;;;;0.34;73.54;102773.09;3603931;39;20135;-62
2023/01/29 01:49:14;;;;;;;28.48;16.65;;;;;;;0.31;72.40;102771.31;3606652;39;20043;-62
2023/01/29 01:51:47;;;;;;;28.70;15.52;;;;;;;0.26;72.66;102767.72;3604335;39;20357;-62
2023/01/29 01:54:27;;;;;;;28.40;16.65;;;;;;;-0.77;72.56;102592.00;3605891;39;20057;-62
2023/01/29 01:57:08;;;;;;;26.55;16.02;;;;;;;0.04;73.08;102742.78;3603881;39;20115;-63
2023/01/29 01:59:39;;;;;;;28.02;16.88;;;;;;;0.10;72.80;102768.41;3604652;39;20062;-63
2023/01/29 02:10:44;;;;;;;31.27;17.52;;;;;;;-0.01;73.33;102777.06;3605370;39;20497;-63
2023/01/29 02:13:11;;;;;;;28.83;17.08;;;;;;;-0.34;72.96;102723.78;3607163;39;20710;-62
2023/01/29 02:15:40;;;;;;;30.38;17.48;;;;;;;-0.12;73.98;102769.88;3605755;39;20326;-62
2023/01/29 02:18:08;;;;;;;30.42;17.85;;;;;;;-0.12;73.66;102772.53;3605881;39;20063;-63
2023/01/29 02:20:34;;;;;;;32.70;18.75;;;;;;;-0.16;73.36;102770.69;3605575;39;20112;-61
2023/01/29 02:23:27;;;;;;;33.80;18.67;;;;;;;-0.13;74.29;102778.66;3594892;39;20047;-62
2023/01/29 02:26:29;;;;;;;31.88;18.00;;;;;;;-0.15;73.66;102789.22;3604307;39;20051;-62
2023/01/29 02:29:21;;;;;;;37.30;19.00;;;;;;;-0.16;73.60;102773.34;3605971;39;20051;-62
2023/01/29 02:32:34;;;;;;;31.60;18.02;;;;;;;-0.11;74.77;102779.59;3606655;39;20140;-62
2023/01/29 02:38:16;;;;;;;32.38;19.50;;;;;;;-0.07;74.49;102787.56;3607417;39;20411;-62
2023/01/29 02:40:57;;;;;;;34.45;19.42;;;;;;;-0.82;73.54;102656.19;3604667;39;20063;-62
2023/01/29 02:44:04;;;;;;;32.20;18.65;;;;;;;0.02;74.04;102781.53;3604972;39;20047;-62
2023/01/29 02:46:55;;;;;;;36.67;18.73;;;;;;;0.06;74.92;102783.31;3606691;39;20062;-62
2023/01/29 02:49:41;;;;;;;33.47;19.20;;;;;;;0.13;73.83;102774.63;3604568;39;20070;-62
2023/01/29 02:52:49;;;;;;;32.15;18.73;;;;;;;0.16;73.24;102777.31;3604285;39;20120;-62
2023/01/29 02:55:35;;;;;;;31.80;18.67;;;;;;;0.18;73.54;102761.44;3606945;39;20087;-62
2023/01/29 02:58:30;;;;;;;33.95;19.58;;;;;;;0.28;73.54;102765.09;3605417;39;20279;-62
2023/01/29 03:01:14;;;;;;;34.88;19.58;;;;;;;0.33;73.50;102766.94;3605005;39;20511;-63
2023/01/29 03:03:48;;;;;;;31.65;19.02;;;;;;;-0.01;73.52;102702.16;3606105;39;20519;-62
2023/01/29 03:06:25;;;;;;;31.67;18.73;;;;;;;-0.22;73.72;102659.59;3600722;39;20393;-63
2023/01/29 03:09:05;;;;;;;34.63;19.33;;;;;;;0.47;74.16;102770.59;3605138;39;20055;-63
2023/01/29 03:11:41;;;;;;;33.17;19.27;;;;;;;0.53;73.14;102772.44;3602043;39;20143;-63
2023/01/29 03:14:17;;;;;;;32.58;18.65;;;;;;;0.59;73.90;102775.16;3602979;39;20334;-63
2023/01/29 03:16:50;;;;;;;31.25;18.98;;;;;;;0.64;73.42;102765.50;3604340;39;20059;-63
2023/01/29 03:19:39;;;;;;;29.70;17.75;;;;;;;0.68;73.26;102767.31;3604812;39;20382;-63
2023/01/29 03:22:12;;;;;;;30.58;19.00;;;;;;;0.73;73.57;102766.47;3604964;39;20047;-63
2023/01/29 03:34:15;;;;;;;28.45;17.25;;;;;;;0.87;72.88;102760.44;3604363;39;20045;-62
2023/01/29 03:36:56;;;;;;;28.75;17.48;;;;;;;0.79;71.85;102734.75;3604359;39;20091;-62
2023/01/29 03:39:27;;;;;;;27.85;17.38;;;;;;;0.90;72.18;102752.53;3604807;39;20096;-62
2023/01/29 03:42:13;;;;;;;28.90;17.75;;;;;;;0.93;73.35;102763.16;3602469;39;20048;-62
2023/01/29 03:45:41;;;;;;;29.33;17.75;;;;;;;0.98;71.85;102768.47;3602235;39;20083;-62
2023/01/29 03:48:28;;;;;;;29.80;18.10;;;;;;;1.00;72.19;102752.63;3602660;39;20469;-62
2023/01/29 03:51:22;;;;;;;27.92;16.83;;;;;;;1.04;72.73;102762.34;3603271;39;20052;-62
2023/01/29 03:54:13;;;;;;;28.58;17.05;;;;;;;1.06;72.11;102750.91;3606195;39;20067;-62
2023/01/29 03:57:06;;;;;;;31.05;17.98;;;;;;;1.11;72.01;102743.91;3605897;39;20067;-63
2023/01/29 03:59:56;;;;;;;26.40;16.70;;;;;;;1.06;72.58;102735.00;3608364;39;20046;-62
2023/01/29 04:02:34;;;;;;;31.63;18.17;;;;;;;1.14;73.03;102754.50;3609672;39;20263;-63
2023/01/29 04:05:15;;;;;;;31.25;18.33;;;;;;;1.16;71.85;102744.81;3607846;39;20055;-62
2023/01/29 04:07:45;;;;;;;27.35;17.23;;;;;;;1.03;71.56;102713.81;3604566;39;20067;-62
2023/01/29 04:10:23;;;;;;;31.38;17.83;;;;;;;1.18;71.47;102738.66;3596532;39;20051;-62
2023/01/29 04:13:00;;;;;;;30.15;18.75;;;;;;;1.20;72.96;102736.88;3607733;39;20047;-62
2023/01/29 04:15:33;;;;;;;29.42;18.40;;;;;;;1.21;71.65;102723.66;3604715;39;20565;-62
2023/01/29 04:18:00;;;;;;;29.55;18.33;;;;;;;1.22;73.17;102719.25;3603339;39;20087;-63
2023/01/29 04:20:26;;;;;;;29.17;18.23;;;;;;;1.26;72.30;102721.03;3605040;39;20051;-62
2023/01/29 04:22:52;;;;;;;31.60;18.30;;;;;;;1.29;71.90;102721.06;3602744;39;20055;-62
2023/01/29 04:25:27;;;;;;;36.78;20.55;;;;;;;1.22;72.29;102703.34;3604530;39;20078;-62
2023/01/29 04:28:22;;;;;;;32.22;20.00;;;;;;;1.31;71.58;102719.31;3604670;39;20055;-62
2023/01/29 04:31:05;;;;;;;29.23;18.83;;;;;;;1.35;71.53;102713.16;3606792;39;20055;-62
2023/01/29 04:34:13;;;;;;;31.20;19.45;;;;;;;1.39;72.34;102725.53;3604500;39;20152;-62
2023/01/29 04:36:54;;;;;;;29.95;18.60;;;;;;;1.41;71.37;102726.44;3603268;39;20070;-62
2023/01/29 04:39:47;;;;;;;30.40;18.90;;;;;;;1.42;72.18;102717.59;3603025;39;20101;-62
2023/01/29 04:42:52;;;;;;;29.38;18.95;;;;;;;1.45;71.25;102712.31;3603467;39;20741;-62
2023/01/29 04:45:33;;;;;;;29.73;18.80;;;;;;;1.50;71.85;102710.59;3602709;39;20055;-62
2023/01/29 04:49:11;;;;;;;31.17;19.50;;;;;;;1.50;72.23;102702.66;3602902;39;20059;-63
2023/01/29 04:51:42;;;;;;;29.25;18.55;;;;;;;1.51;71.53;102696.47;3587603;39;20099;-62
2023/01/29 04:54:31;;;;;;;33.03;18.65;;;;;;;1.50;71.36;102694.72;3602826;39;20054;-62
2023/01/29 04:57:25;;;;;;;30.80;19.75;;;;;;;1.55;71.39;102684.13;3604036;39;20054;-62
2023/01/29 05:00:12;;;;;;;30.83;18.98;;;;;;;1.56;70.99;102680.59;3604498;39;20105;-62
2023/01/29 05:02:43;;;;;;;33.95;19.67;;;;;;;1.42;71.40;102650.47;3602283;39;20091;-62
2023/01/29 05:05:14;;;;;;;30.30;19.13;;;;;;;1.58;72.23;102663.81;3603294;39;20091;-62
2023/01/29 05:07:43;;;;;;;32.08;19.38;;;;;;;1.62;71.26;102667.38;3603582;39;20063;-62
2023/01/29 05:10:15;;;;;;;33.30;19.90;;;;;;;1.60;71.82;102672.66;3604614;39;20070;-63
2023/01/29 05:12:50;;;;;;;29.05;18.33;;;;;;;1.34;72.01;102616.00;3603872;39;20067;-62
2023/01/29 05:15:28;;;;;;;30.13;18.52;;;;;;;1.65;71.89;102666.50;3602965;39;20067;-62
2023/01/29 05:18:00;;;;;;;33.40;19.70;;;;;;;1.66;71.55;102665.63;3603344;39;20332;-62
2023/01/29 05:20:26;;;;;;;30.10;18.95;;;;;;;1.69;70.84;102663.00;3603993;39;20050;-63
2023/01/29 05:22:52;;;;;;;33.65;20.38;;;;;;;1.51;71.26;102635.50;3605102;39;20391;-63
2023/01/29 05:25:27;;;;;;;36.63;21.23;;;;;;;1.71;70.89;102666.53;3606218;39;20124;-63
2023/01/29 05:28:03;;;;;;;31.00;19.58;;;;;;;1.47;71.18;102615.19;3603572;39;20063;-63
2023/01/29 05:30:31;;;;;;;34.60;20.23;;;;;;;1.74;70.59;102655.94;3606730;39;20119;-63
2023/01/29 05:32:57;;;;;;;36.17;23.60;;;;;;;1.71;71.93;102643.53;3603043;39;20134;-63
2023/01/29 05:35:23;;;;;;;37.53;25.23;;;;;;;1.61;70.87;102629.38;3604187;39;20051;-63
2023/01/29 05:37:48;;;;;;;54.97;33.20;;;;;;;1.73;71.39;102643.56;3603632;39;20059;-62
2023/01/29 05:40:14;;;;;;;45.83;28.75;;;;;;;1.60;71.77;102617.00;3596625;39;20057;-63
2023/01/29 05:42:39;;;;;;;37.63;23.73;;;;;;;1.76;71.03;102643.59;3602122;39;20294;-62
2023/01/29 05:45:06;;;;;;;37.97;23.00;;;;;;;1.78;71.07;102652.44;3603296;39;20062;-62
2023/01/29 05:47:32;;;;;;;35.30;21.55;;;;;;;1.80;72.05;102656.84;3600600;39;20463;-62
2023/01/29 05:49:57;;;;;;;39.65;22.80;;;;;;;1.82;71.41;102655.09;3604178;39;20047;-62
2023/01/29 05:52:23;;;;;;;34.20;22.85;;;;;;;1.87;71.75;102652.44;3610122;39;20050;-62
2023/01/29 05:54:48;;;;;;;36.53;22.88;;;;;;;1.88;71.37;102659.53;3601933;39;20066;-62
2023/01/29 05:57:14;;;;;;;33.78;21.38;;;;;;;1.84;71.07;102647.16;3604685;39;20058;-62
2023/01/29 05:59:39;;;;;;;34.35;21.90;;;;;;;1.92;71.48;102665.75;3603389;39;20059;-62
2023/01/29 06:02:05;;;;;;;34.05;21.58;;;;;;;1.92;71.27;102660.44;3608064;39;20381;-63
2023/01/29 06:04:31;;;;;;;32.58;21.52;;;;;;;1.86;70.82;102656.00;3601657;39;20059;-62
2023/01/29 06:06:57;;;;;;;35.60;23.15;;;;;;;1.94;72.09;102664.00;3605699;39;20051;-63
2023/01/29 06:09:22;;;;;;;34.58;21.75;;;;;;;1.92;71.32;102669.28;3604142;39;20338;-62
2023/01/29 06:11:48;;;;;;;35.15;22.58;;;;;;;1.94;71.13;102664.88;3604595;39;20286;-62
2023/01/29 06:14:13;;;;;;;36.35;22.20;;;;;;;1.97;70.80;102664.88;3604360;39;20062;-62
2023/01/29 06:16:39;;;;;;;40.33;25.45;;;;;;;1.99;71.65;102673.72;3602986;39;20064;-62
2023/01/29 06:19:04;;;;;;;65.57;36.42;;;;;;;1.97;71.55;102666.66;3601262;39;20306;-62
2023/01/29 06:21:30;;;;;;;47.70;27.48;;;;;;;2.03;71.57;102683.47;3604091;39;20701;-62
2023/01/29 06:23:56;;;;;;;39.17;25.23;;;;;;;2.05;72.02;102688.75;3602183;39;20055;-62
2023/01/29 06:26:21;;;;;;;38.17;24.85;;;;;;;2.07;71.53;102685.25;3603900;39;21893;-62
2023/01/29 06:28:50;;;;;;;39.10;23.80;;;;;;;1.95;70.93;102677.25;3606403;39;20043;-62
2023/01/29 06:31:16;;;;;;;35.88;22.38;;;;;;;2.07;70.83;102689.66;3603066;39;20048;-62
2023/01/29 06:33:41;;;;;;;36.08;23.30;;;;;;;2.11;71.46;102679.94;3603601;39;20142;-62
2023/01/29 06:36:07;;;;;;;36.30;22.75;;;;;;;2.07;71.46;102661.38;3603735;39;20119;-62
2023/01/29 06:38:33;;;;;;;39.88;25.15;;;;;;;2.11;70.44;102656.94;3603508;39;20471;-62
2023/01/29 06:40:59;;;;;;;50.53;30.50;;;;;;;2.07;71.42;102650.75;3602101;39;20039;-62
2023/01/29 06:43:25;;;;;;;37.97;24.73;;;;;;;2.05;71.43;102636.59;3604571;39;20054;-62
2023/01/29 06:45:56;;;;;;;37.47;23.92;;;;;;;1.74;70.58;102587.00;3602680;39;20055;-62
2023/01/29 06:48:23;;;;;;;35.47;23.00;;;;;;;2.06;70.58;102654.31;3607013;39;20290;-62
2023/01/29 06:50:49;;;;;;;40.03;25.75;;;;;;;2.08;71.45;102657.81;3597802;39;20218;-63
2023/01/29 06:53:17;;;;;;;38.67;24.02;;;;;;;2.05;70.73;102647.22;3595920;39;20051;-62
2023/01/29 06:55:49;;;;;;;36.63;22.67;;;;;;;2.06;71.51;102643.69;3606082;39;20054;-62
2023/01/29 06:58:15;;;;;;;36.33;22.63;;;;;;;2.10;72.03;102649.88;3606105;39;20098;-62
2023/01/29 07:00:40;;;;;;;36.20;22.15;;;;;;;2.09;71.19;102638.41;3603471;39;20069;-62
2023/01/29 07:03:09;;;;;;;35.75;23.02;;;;;;;1.90;71.60;102594.13;3603772;39;20320;-62
2023/01/29 07:05:35;;;;;;;35.10;22.50;;;;;;;2.07;71.78;102637.50;3605963;39;20066;-62
2023/01/29 07:08:01;;;;;;;37.53;23.05;;;;;;;2.09;71.20;102638.41;3605736;39;20287;-62
2023/01/29 07:10:26;;;;;;;37.58;23.27;;;;;;;2.09;71.21;102633.09;3604091;39;20086;-62
2023/01/29 07:12:52;;;;;;;38.15;22.65;;;;;;;2.09;71.30;102632.19;3604271;39;20046;-63
2023/01/29 07:15:20;;;;;;;39.30;25.05;;;;;;;2.05;72.04;102630.41;3604976;39;20444;-62
2023/01/29 07:17:59;;;;;;;37.63;22.63;;;;;;;2.06;71.64;102635.75;3608653;39;20329;-62
2023/01/29 07:20:28;;;;;;;35.45;22.80;;;;;;;2.11;72.03;102635.72;3604036;39;22383;-62
2023/01/29 07:22:56;;;;;;;36.58;23.02;;;;;;;2.16;71.11;102646.34;3605904;39;20127;-62
2023/01/29 07:25:24;;;;;;;38.72;22.10;;;;;;;2.16;71.67;102643.69;3607516;39;20090;-62
2023/01/29 07:27:49;;;;;;;37.20;23.60;;;;;;;2.18;71.33;102647.25;3606288;39;20054;-62
2023/01/29 07:30:16;;;;;;;38.42;24.58;;;;;;;1.45;71.04;102518.91;3604928;39;20055;-62
2023/01/29 07:32:42;;;;;;;36.45;23.15;;;;;;;2.16;71.51;102649.00;3602438;39;20063;-62
2023/01/29 07:35:09;;;;;;;37.88;23.77;;;;;;;2.16;70.78;102643.69;3605632;39;20051;-63
2023/01/29 07:37:35;;;;;;;34.95;21.95;;;;;;;2.20;71.96;102645.50;3605757;39;20051;-62
2023/01/29 07:40:01;;;;;;;37.50;23.40;;;;;;;2.19;71.54;102634.00;3608654;39;20050;-62
2023/01/29 07:42:27;;;;;;;37.35;23.45;;;;;;;2.17;71.07;102626.91;3604080;39;20131;-62
2023/01/29 07:44:52;;;;;;;38.03;24.52;;;;;;;2.23;70.77;102624.28;3604309;39;20051;-62
2023/01/29 07:47:18;;;;;;;36.90;22.67;;;;;;;2.27;70.57;102623.38;3603573;39;20066;-62
2023/01/29 07:49:43;;;;;;;35.97;22.25;;;;;;;2.29;70.06;102626.94;3600962;39;20059;-62
2023/01/29 07:52:09;;;;;;;36.58;23.27;;;;;;;2.28;70.95;102643.72;3605072;39;20051;-62
2023/01/29 07:54:34;;;;;;;37.05;24.00;;;;;;;2.26;71.12;102641.06;3603106;39;20059;-62
2023/01/29 07:57:00;;;;;;;38.83;25.10;;;;;;;2.26;70.75;102642.84;3604942;39;20584;-62
2023/01/29 07:59:26;;;;;;;36.67;23.73;;;;;;;2.31;70.01;102649.03;3606622;39;20050;-62
2023/01/29 08:01:51;;;;;;;35.60;22.95;;;;;;;2.30;70.27;102641.97;3602884;39;20066;-62
2023/01/29 08:04:17;;;;;;;36.47;23.60;;;;;;;2.31;70.40;102633.09;3601694;39;20059;-62
2023/01/29 08:06:42;;;;;;;36.70;23.55;;;;;;;2.33;70.66;102631.34;3601750;39;20306;-62
2023/01/29 08:09:09;;;;;;;35.85;22.52;;;;;;;2.35;70.36;102636.66;3609748;39;20419;-63
2023/01/29 08:11:35;;;;;;;35.22;22.77;;;;;;;2.36;70.62;102626.06;3605442;39;20095;-63
2023/01/29 08:14:01;;;;;;;39.30;25.73;;;;;;;2.33;69.41;102628.69;3603410;39;20063;-62
2023/01/29 08:16:26;;;;;;;51.55;29.20;;;;;;;2.36;70.87;102630.47;3601763;39;20382;-63
2023/01/29 08:18:52;;;;;;;42.20;25.25;;;;;;;2.35;69.97;102618.97;3608964;39;20063;-62
2023/01/29 08:21:18;;;;;;;40.63;25.10;;;;;;;2.40;70.16;102613.66;3601459;39;20073;-63
2023/01/29 08:23:44;;;;;;;38.45;23.33;;;;;;;2.40;70.55;102630.47;3604756;39;20067;-63
2023/01/29 08:26:09;;;;;;;36.42;23.17;;;;;;;2.44;70.46;102628.69;3604046;39;20043;-62
2023/01/29 08:28:37;;;;;;;37.58;24.08;;;;;;;2.46;69.59;102632.25;3604694;39;20631;-62
2023/01/29 08:31:03;;;;;;;37.22;24.65;;;;;;;2.32;70.04;102597.75;3603647;39;21368;-62
2023/01/29 08:33:29;;;;;;;35.78;24.10;;;;;;;2.47;69.33;102618.09;3601223;39;20051;-63
2023/01/29 08:35:54;;;;;;;34.95;22.63;;;;;;;2.46;69.85;102611.91;3603899;39;20057;-62
2023/01/29 08:38:20;;;;;;;38.10;24.48;;;;;;;2.44;69.90;102619.00;3603559;39;20066;-62
2023/01/29 08:40:46;;;;;;;37.92;24.40;;;;;;;2.43;70.09;102622.50;3602042;39;20063;-63
2023/01/29 08:43:13;;;;;;;37.65;24.02;;;;;;;2.46;70.29;102621.63;3608008;39;20099;-62
2023/01/29 08:45:43;;;;;;;42.55;25.48;;;;;;;2.46;69.50;102611.03;3605749;39;20383;-62
2023/01/29 08:48:10;;;;;;;37.72;22.60;;;;;;;2.41;69.86;102599.50;3603849;39;20051;-62
2023/01/29 08:50:37;;;;;;;38.15;23.52;;;;;;;2.43;70.18;102600.41;3606735;39;20074;-63
2023/01/29 08:53:06;;;;;;;34.92;22.27;;;;;;;2.45;69.79;102593.34;3606709;39;20136;-63
2023/01/29 08:55:35;;;;;;;34.08;21.98;;;;;;;2.44;70.65;102592.44;3607203;39;20063;-62
2023/01/29 08:58:10;;;;;;;33.80;21.90;;;;;;;2.47;69.67;102603.03;3604880;39;20055;-63
2023/01/29 09:00:37;;;;;;;30.13;21.02;;;;;;;2.50;69.87;102600.38;3604595;39;20086;-63
2023/01/29 09:03:03;;;;;;;35.00;20.40;;;;;;;2.53;70.28;102597.72;3604608;39;20610;-63
2023/01/29 09:05:29;;;;;;;38.17;23.65;;;;;;;2.43;69.66;102585.34;3606760;39;20095;-62
2023/01/29 09:07:58;;;;;;;33.55;20.88;;;;;;;2.54;70.00;102599.53;3602505;39;20400;-63
2023/01/29 09:10:24;;;;;;;35.63;20.98;;;;;;;2.58;70.03;102599.53;3605105;39;20049;-63
2023/01/29 09:12:50;;;;;;;33.63;21.27;;;;;;;2.59;70.23;102607.47;3603782;39;20047;-63
2023/01/29 09:15:16;;;;;;;31.48;20.58;;;;;;;2.64;70.00;102604.84;3604209;39;20051;-62
2023/01/29 09:17:42;;;;;;;35.22;20.98;;;;;;;2.67;69.83;102595.09;3606840;39;20093;-63
2023/01/29 09:20:09;;;;;;;33.28;20.90;;;;;;;2.67;69.80;102588.91;3605338;39;20051;-63
2023/01/29 09:22:35;;;;;;;32.60;20.52;;;;;;;2.67;69.42;102588.91;3604646;39;20055;-63
2023/01/29 09:25:01;;;;;;;31.73;20.25;;;;;;;2.68;69.68;102585.34;3605131;39;20047;-63
2023/01/29 09:27:27;;;;;;;32.08;19.95;;;;;;;2.70;69.63;102583.59;3603678;39;20131;-62
2023/01/29 09:29:52;;;;;;;30.65;19.10;;;;;;;2.72;68.38;102587.13;3606182;39;20473;-65
2023/01/29 09:32:18;;;;;;;33.38;20.05;;;;;;;2.71;68.97;102585.34;3607755;39;20047;-63
2023/01/29 09:34:44;;;;;;;32.88;18.80;;;;;;;2.74;68.84;102585.34;3609400;39;20062;-63
2023/01/29 09:37:09;;;;;;;30.67;19.33;;;;;;;2.76;69.10;102588.91;3604116;39;20060;-62
2023/01/29 09:39:35;;;;;;;29.98;19.65;;;;;;;2.78;68.67;102584.44;3604791;39;20100;-63
2023/01/29 09:42:23;;;;;;;30.75;19.48;;;;;;;2.78;68.49;102589.75;3603705;39;20331;-62
2023/01/29 09:44:54;;;;;;;33.60;21.88;;;;;;;2.79;68.56;102572.94;3605890;39;20128;-64
2023/01/29 09:47:26;;;;;;;33.92;21.05;;;;;;;2.81;68.53;102580.91;3607216;39;20043;-64
2023/01/29 09:50:04;;;;;;;31.13;20.23;;;;;;;2.82;68.04;102580.91;3602637;39;20063;-64
2023/01/29 09:52:53;;;;;;;31.40;21.00;;;;;;;2.85;68.04;102577.34;3603565;39;20287;-63
2023/01/29 09:55:27;;;;;;;31.98;19.98;;;;;;;2.83;68.44;102579.16;3591777;39;20120;-64
2023/01/29 09:58:18;;;;;;;33.00;20.00;;;;;;;2.90;68.61;102578.25;3606985;39;20458;-64
2023/01/29 10:01:31;;;;;;;30.13;19.70;;;;;;;2.96;68.79;102570.28;3604654;39;20047;-64
2023/01/29 10:04:16;;;;;;;31.33;18.48;;;;;;;2.95;67.27;102572.03;3604047;39;20050;-63
2023/01/29 10:07:46;;;;;;;28.50;18.63;;;;;;;2.97;67.63;102587.97;3603714;39;20127;-63
2023/01/29 10:10:17;;;;;;;29.40;18.20;;;;;;;3.00;67.69;102580.00;3575836;39;20055;-64
2023/01/29 10:13:29;;;;;;;31.85;18.70;;;;;;;3.03;67.33;102583.53;3607474;39;20066;-63
2023/01/29 10:16:33;;;;;;;29.48;18.35;;;;;;;3.08;67.50;102593.28;3604480;39;20059;-64
2023/01/29 10:19:29;;;;;;;28.45;17.30;;;;;;;3.12;68.01;102587.94;3604574;39;20043;-63
2023/01/29 10:22:18;;;;;;;28.55;17.88;;;;;;;3.15;67.51;102590.59;3605837;39;20055;-63
2023/01/29 10:25:04;;;;;;;30.60;19.05;;;;;;;3.18;67.47;102587.03;3604042;39;20112;-63
2023/01/29 10:27:40;;;;;;;30.52;18.77;;;;;;;3.23;67.13;102582.56;3603983;39;20054;-63
2023/01/29 10:30:29;;;;;;;29.33;18.23;;;;;;;3.25;67.63;102583.47;3605146;39;20143;-64
2023/01/29 10:33:02;;;;;;;30.63;19.15;;;;;;;3.24;67.16;102574.63;3602522;39;20450;-64
2023/01/29 10:35:41;;;;;;;27.85;18.70;;;;;;;3.29;67.10;102582.56;3603370;39;20056;-63
2023/01/29 10:38:43;;;;;;;27.98;18.55;;;;;;;3.31;66.85;102577.25;3603080;39;20188;-63
2023/01/29 10:42:12;;;;;;;29.80;18.73;;;;;;;3.38;66.72;102573.69;3588031;39;20634;-63
2023/01/29 10:45:03;;;;;;;28.90;18.65;;;;;;;3.39;66.90;102576.31;3602614;39;20396;-64
2023/01/29 10:47:47;;;;;;;29.55;18.52;;;;;;;3.42;66.14;102564.78;3604918;39;20059;-63
2023/01/29 10:50:40;;;;;;;;;;;;;;;3.43;66.43;102567.47;3603955;39;20043;-63
2023/01/29 10:53:27;;;;;;;29.08;17.85;;;;;;;3.42;65.84;102560.34;3602933;39;19948;-63
2023/01/29 10:56:10;;;;;;;30.48;19.60;;;;;;;3.49;66.37;102567.44;3603274;39;20093;-63
2023/01/29 10:58:55;;;;;;;29.42;19.92;;;;;;;3.51;66.05;102559.44;3602696;39;20282;-63
2023/01/29 11:01:21;;;;;;;27.02;17.67;;;;;;;3.43;65.70;102532.91;3602736;39;20292;-63
2023/01/29 11:03:59;;;;;;;26.95;18.05;;;;;;;3.66;65.91;102558.50;3606170;39;20079;-63
2023/01/29 11:06:33;;;;;;;28.25;18.23;;;;;;;3.68;64.72;102546.09;3607740;39;20051;-64
2023/01/29 11:09:11;;;;;;;29.88;18.58;;;;;;;3.71;65.33;102546.94;3603427;39;20085;-63
2023/01/29 11:11:53;;;;;;;25.23;17.08;;;;;;;3.72;65.55;102534.53;3603746;39;20047;-63
2023/01/29 11:14:28;;;;;;;24.20;16.35;;;;;;;3.80;64.52;102535.34;3601719;39;20047;-64
2023/01/29 11:16:55;;;;;;;24.58;15.38;;;;;;;3.83;64.24;102524.69;3604469;39;20412;-64
2023/01/29 11:19:39;;;;;;;24.65;16.40;;;;;;;3.88;64.33;102522.88;3604945;39;20059;-64
2023/01/29 11:22:32;;;;;;;25.92;15.98;;;;;;;3.95;64.51;102519.28;3601085;39;20054;-63
2023/01/29 11:25:19;;;;;;;26.33;15.55;;;;;;;3.98;64.44;102513.06;3603350;39;20057;-63
2023/01/29 11:27:53;;;;;;;24.15;15.95;;;;;;;4.02;63.99;102500.63;3594878;39;20051;-64
2023/01/29 11:30:29;;;;;;;29.80;16.52;;;;;;;4.04;63.60;102493.50;3602629;39;20066;-64
2023/01/29 11:33:04;;;;;;;23.60;15.57;;;;;;;4.03;63.69;102494.38;3602148;39;20063;-64
2023/01/29 11:35:32;;;;;;;25.55;15.57;;;;;;;4.09;63.47;102476.63;3602749;39;20052;-64
2023/01/29 11:38:17;;;;;;;24.58;16.17;;;;;;;4.08;63.51;102471.28;3603218;39;20386;-64
2023/01/29 11:40:43;;;;;;;25.17;16.65;;;;;;;4.15;64.13;102470.34;3607491;39;20061;-63
2023/01/29 11:43:22;;;;;;;25.38;16.10;;;;;;;4.18;62.99;102470.31;3605672;39;20047;-63
2023/01/29 11:45:54;;;;;;;28.55;17.48;;;;;;;4.19;63.55;102467.66;3602254;39;20071;-63
2023/01/29 11:48:25;;;;;;;25.40;16.70;;;;;;;4.22;63.00;102456.09;3604587;39;20418;-64
2023/01/29 11:50:59;;;;;;;31.80;18.52;;;;;;;4.28;62.98;102455.13;3601406;39;20055;-64
2023/01/29 11:53:53;;;;;;;24.95;16.13;;;;;;;4.27;62.00;102443.63;3603036;39;20424;-64
2023/01/29 11:56:37;;;;;;;26.35;15.77;;;;;;;4.25;62.86;102442.78;3603212;39;20124;-63
2023/01/29 11:59:04;;;;;;;22.88;15.70;;;;;;;4.01;62.61;102385.31;3604226;39;20067;-64
2023/01/29 12:01:37;;;;;;;23.05;15.15;;;;;;;3.59;62.95;102305.03;3603299;39;20120;-64
2023/01/29 12:04:20;;;;;;;28.65;17.33;;;;;;;4.30;62.43;102397.47;3602944;39;20151;-64
2023/01/29 12:06:51;;;;;;;26.08;15.75;;;;;;;4.40;62.74;102405.31;3600814;39;20047;-64
2023/01/29 12:09:26;;;;;;;23.02;15.52;;;;;;;4.41;62.46;102401.78;3605032;39;20335;-64
2023/01/29 12:11:51;;;;;;;26.73;16.65;;;;;;;4.43;62.32;102393.75;3602980;39;20043;-64
2023/01/29 12:14:32;;;;;;;25.17;17.15;;;;;;;4.43;62.47;102383.09;3606116;39;20483;-64
2023/01/29 12:17:19;;;;;;;26.80;16.48;;;;;;;4.47;62.07;102384.81;3604380;39;20055;-64
2023/01/29 12:19:58;;;;;;;21.27;15.18;;;;;;;4.47;62.37;102378.63;3606043;39;20090;-64
2023/01/29 12:23:07;;;;;;;27.58;17.17;;;;;;;4.45;62.64;102373.34;3606508;39;20127;-64